METAR Data
IDs: Format: Raw Decoded Include TAF

Data at: 1339 UTC 14 Dec 2019

PAGY 141253Z AUTO 20014KT 10SM OVC070 04/02 A2998 RMK SLP154 T00440017 TSNO VIA AUTODIAL
PAGY 141201Z AUTO 19011KT 10SM SCT018 BKN050 OVC065 04/01 A2999 RMK T00440011 TSNO VIA AUTODIAL
PAGY 141153Z AUTO 17003KT 10SM FEW013 BKN018 OVC050 03/01 A2999 RMK SLP156 60000 70002 T00330011 10033 20006 51008 TSNO VIA AUTODIAL
PAGY 141124Z AUTO 07004KT 10SM SCT013 BKN019 OVC080 01/M01 A2999 RMK AO2 T00111006 TSNO
PAGY 141053Z AUTO 00000KT 10SM FEW014 SCT019 OVC075 01/00 A2999 RMK SLP155 T00060000 TSNO VIA AUTODIAL
PAGY 141033Z AUTO 00000KT 10SM SCT015 BKN050 OVC075 01/M01 A2999 RMK T00111006 TSNO VIA AUTODIAL
PAGY 140953Z AUTO 00000KT 10SM BKN016 BKN049 OVC060 01/M01 A2999 RMK UPE0856 SLP154 P0000 T00061006 TSNO VIA AUTODIAL
PAGY 140853Z AUTO 00000KT 10SM UP FEW016 BKN050 OVC080 01/M01 A2997 RMK UPB12E21B46 SLP148 P0000 60000 T00061006 400110000 58000 TSNO VIA AUTODIAL
PAGY 140753Z AUTO 00000KT 10SM SCT019 BKN055 OVC085 01/M01 A2998 RMK AO2 SLP151 T00061006 TSNO
PAGY 140714Z AUTO 00000KT 10SM BKN019 BKN050 OVC090 01/M01 A2997 RMK AO2 T00061006 TSNO
PAGY 140653Z AUTO 00000KT 10SM BKN019 OVC050 01/M01 A2997 RMK AO2 SLP149 T00061011 TSNO
PAGY 140553Z AUTO 00000KT 10SM CLR 01/M01 A2996 RMK SLP146 60000 T00061006 10011 20006 53006 TSNO VIA AUTODIAL
PAGY 140522Z AUTO 00000KT 10SM SCT020 01/M02 A2996 RMK T00061017 TSNO VIA AUTODIAL
PAGY 140453Z AUTO 02003KT 10SM BKN020 BKN055 01/M01 A2996 RMK SLP144 T00061011 TSNO VIA AUTODIAL
PAGY 140353Z AUTO VRB05KT 10SM OVC020 01/M02 A2995 RMK SLP140 T00061022 TSNO VIA AUTODIAL
PAGY 140253Z AUTO 36003KT 9SM BKN020 OVC030 01/M03 A2995 RMK SNB35E50 SLP141 P0000 60000 T00111028 51005 TSNO VIA AUTODIAL
PAGY 140153Z AUTO 03007KT 10SM OVC019 01/M02 A2995 RMK SLP140 T00111022 TSNO VIA AUTODIAL
PAGY 140053Z AUTO 02005KT 10SM OVC019 01/M03 A2994 RMK SNE41 SLP138 P0000 T00111028 TSNO VIA AUTODIAL
PAGY 132353Z AUTO 03009KT 6SM -SN OVC018 01/M02 A2993 RMK SLP136 P0000 60001 T00061022 10011 20006 52005 TSNO VIA AUTODIAL
PAGY 132346Z AUTO 05006KT 3SM -SN OVC018 01/M02 A2994 RMK AO2 P0000 T00061022 TSNO
PAGY 132300Z AUTO 02004KT 2SM -SN OVC020 01/M02 A2993 RMK P0000 T00061022 TSNO VIA AUTODIAL
PAGY 132253Z AUTO 01007KT 3SM -SN OVC020 01/M02 A2993 RMK SLP134 P0001 T00061022 TSNO VIA AUTODIAL
PAGY 132233Z AUTO 05008KT 3SM -SN FEW009 OVC018 01/M02 A2993 RMK P0001 T00061022 TSNO VIA AUTODIAL
PAGY 132228Z AUTO 04008KT 1 1/2SM -SN BR FEW009 OVC017 01/M02 A2993 RMK P0001 T00061017 TSNO VIA AUTODIAL
PAGY 132220Z AUTO 04006KT 3/4SM -SN BR FEW009 OVC017 01/M02 A2993 RMK P0001 T00061017 TSNO VIA AUTODIAL
PAGY 132211Z AUTO 03005KT 1SM -SN BR OVC018 01/M02 A2992 RMK P0000 T00061017 TSNO VIA AUTODIAL
PAGY 132201Z AUTO 03006KT 1 1/2SM -SN BR OVC017 01/M02 A2992 RMK AO2 P0000 T00061017 TSNO
PAGY 132153Z AUTO 00000KT 1 1/4SM -SN BR OVC017 01/M01 A2992 RMK SLP133 P0000 T00061011 TSNO VIA AUTODIAL
PAGY 132151Z AUTO VRB03KT 1 1/4SM -SN BR OVC017 01/M01 A2992 RMK P0000 TSNO VIA AUTODIAL
PAGY 132147Z AUTO 03003KT 1 3/4SM -SN OVC017 01/M02 A2992 RMK P0000 TSNO VIA AUTODIAL
PAGY 132124Z AUTO 05009KT 3SM -SN OVC018 01/M03 A2992 RMK P0000 T00061028 TSNO VIA AUTODIAL
PAGY 132112Z AUTO 04006KT 1 1/2SM -SN OVC018 01/M02 A2991 RMK P0000 T00061022 TSNO VIA AUTODIAL
PAGY 132053Z AUTO 03007KT 2SM -SN OVC019 01/M03 A2992 RMK SNE04B28 SLP131 P0000 60000 T00061028 51008 TSNO VIA AUTODIAL
PAGY 131953Z AUTO 00000KT 4SM -SN BR OVC023 01/M01 A2991 RMK SNB41 SLP130 P0000 T00061006 TSNO VIA AUTODIAL
PAGY 131853Z AUTO VRB03KT 10SM BKN024 BKN055 OVC100 01/M01 A2991 RMK SLP128 T00061011 TSNO VIA AUTODIAL
PAGY 131753Z AUTO VRB04KT 10SM OVC024 01/M02 A2990 RMK SNB05E14 SLP123 P0000 60001 T00061017 10006 20000 53005 TSNO VIA AUTODIAL
PAGY 131653Z AUTO 33003KT 10SM OVC025 01/M01 A2987 RMK SLP116 T00061011 TSNO VIA AUTODIAL
PAGY 131553Z AUTO 00000KT 10SM OVC026 01/M02 A2987 RMK SNE21 SLP116 P0000 T00061017 TSNO VIA AUTODIAL
PAGY 131504Z AUTO 00000KT 3SM -SN BR BKN020 OVC029 00/M02 A2987 RMK P0000 T00001017 TSNO VIA AUTODIAL
PAGY 131453Z AUTO 00000KT 1 1/2SM -SN BR OVC020 00/M02 A2988 RMK SLP118 P0001 60001 T00001017 53008 TSNO VIA AUTODIAL
PAGY 131440Z AUTO 00000KT 1 3/4SM -SN BR OVC022 00/M02 A2987 RMK P0000 T00001017 TSNO VIA AUTODIAL
PAGY 131400Z AUTO 00000KT 4SM -SN BR OVC029 00/M01 A2986 RMK P0000 T00001011 TSNO VIA AUTODIAL
PAGY 131353Z AUTO 00000KT 3SM -SN BR SCT025 OVC031 00/M02 A2986 RMK SNE1259B21 SLP112 P0000 T00001017 TSNO VIA AUTODIAL
PAGY 131350Z AUTO 33003KT 3SM -SN BR SCT025 OVC031 00/M01 A2986 RMK SNE1259B21 P0000 TSNO VIA AUTODIAL
PAGY 131349Z AUTO 00000KT 2 1/2SM -SN BR SCT026 OVC033 00/M01 A2986 RMK SNE1259B21 P0000 TSNO VIA AUTODIAL
PAGY 131339Z AUTO 00000KT 3SM -SN BR FEW015 OVC026 00/M02 A2986 RMK SNE1259B21 P0000 T00001017 TSNO VIA AUTODIAL
PAGY 131329Z AUTO 00000KT 2 1/2SM -SN BR FEW015 OVC028 00/M02 A2986 RMK SNE1259B21 P0000 T00001017 TSNO VIA AUTODIAL
PAGY 131253Z AUTO VRB03KT 8SM -SN OVC036 01/M02 A2985 RMK UPB40E42SNB42 SLP109 P0000 T00061017 TSNO VIA AUTODIAL
PAGY 131153Z AUTO 00000KT 9SM OVC035 00/M02 A2984 RMK SNB1056E52 SLP105 P0000 60001 70001 T00001017 10017 20000 51021 TSNO VIA AUTODIAL
PAGY 131053Z AUTO 00000KT 10SM OVC038 01/M02 A2983 RMK SNE37 SLP102 P0000 T00061022 TSNO VIA AUTODIAL
PAGY 130953Z AUTO 32003KT 5SM -SN BR OVC032 00/M02 A2981 RMK SLP095 P0001 T00001017 TSNO VIA AUTODIAL
PAGY 130936Z AUTO 00000KT 4SM -SN BR OVC032 01/M02 A2979 RMK P0001 T00061017 TSNO VIA AUTODIAL
PAGY 130928Z AUTO 00000KT 2 1/2SM -SN BR OVC032 01/M02 A2980 RMK P0001 T00061017 TSNO VIA AUTODIAL
PAGY 130853Z AUTO 00000KT 7SM -SN OVC038 01/M02 A2978 RMK SLP084 P0000 60000 T00061017 400560006 51019 TSNO VIA AUTODIAL
PAGY 130850Z AUTO 00000KT 5SM -SN BR OVC036 01/M02 A2978 RMK P0000 TSNO VIA AUTODIAL
PAGY 130841Z AUTO 30004KT 2SM -SN BR OVC030 01/M02 A2976 RMK P0000 T00061017 TSNO VIA AUTODIAL
PAGY 130836Z AUTO 00000KT 1 3/4SM -SN BR OVC028 01/M02 A2977 RMK AO2 P0000 T00061017 TSNO
PAGY 130753Z AUTO VRB06KT 8SM -SN OVC046 02/M04 A2975 RMK SLP073 P0000 T00171039 TSNO VIA AUTODIAL
PAGY 130653Z AUTO 00000KT 8SM -SN OVC041 01/M03 A2972 RMK AO2 SNB34 SLP065 P0000 T00111028 TSNO
PAGY 130553Z AUTO 00000KT 10SM OVC050 01/M02 A2970 RMK AO2 SNE22 SLP056 P0000 60000 T00061017 10033 20006 51016 TSNO
PAGY 130453Z AUTO 34003KT 6SM -SN OVC035 01/M02 A2969 RMK SLP054 P0000 T00111022 TSNO VIA AUTODIAL
PAGY 130353Z AUTO VRB03KT 3SM -SN FEW027 OVC040 01/M02 A2967 RMK SNB02 SLP048 P0000 T00111017 TSNO VIA AUTODIAL
PAGY 130253Z AUTO 02007G18KT 10SM FEW028 OVC042 02/M04 A2965 RMK SLP040 T00221044 53028 TSNO VIA AUTODIAL
PAGY 130153Z AUTO 05014G22KT 10SM FEW046 OVC055 03/M06 A2960 RMK SLP024 T00281056 TSNO VIA AUTODIAL